createdAt,value
2018-08-06T00:00:40.327Z,99017.91
2018-08-06T00:03:09.471Z,99019.57
2018-08-06T00:05:38.384Z,99023.69
2018-08-06T00:08:07.769Z,99021.77
2018-08-06T00:10:36.655Z,99022.88
2018-08-06T00:13:05.673Z,99018.20
2018-08-06T00:15:34.615Z,99016.28
2018-08-06T00:18:03.422Z,99011.88
2018-08-06T00:20:32.254Z,99011.59
2018-08-06T00:23:01.281Z,99012.38
2018-08-06T00:25:30.232Z,99015.34
2018-08-06T00:27:59.063Z,99019.16
2018-08-06T00:30:28.000Z,99020.77
2018-08-06T00:32:56.898Z,99023.02
2018-08-06T00:35:25.817Z,99016.40
2018-08-06T00:37:54.716Z,99023.24
2018-08-06T00:40:23.619Z,99027.93
2018-08-06T00:42:52.561Z,99021.86
2018-08-06T00:45:22.140Z,99032.29
2018-08-06T00:47:51.224Z,99024.85
2018-08-06T00:50:20.085Z,99032.27
2018-08-06T00:52:49.143Z,99027.92
2018-08-06T00:55:19.217Z,99030.70
2018-08-06T00:57:48.057Z,99023.32
2018-08-06T01:00:18.075Z,99027.95
2018-08-06T01:02:46.982Z,99024.41
2018-08-06T01:05:16.432Z,99020.31
2018-08-06T01:07:45.677Z,99021.38
2018-08-06T01:10:15.860Z,99027.28
2018-08-06T01:12:44.762Z,99029.91
2018-08-06T01:15:15.827Z,99032.30
2018-08-06T01:17:44.738Z,99030.75
2018-08-06T01:20:14.251Z,99027.42
2018-08-06T01:22:43.987Z,99031.19
2018-08-06T01:25:13.583Z,99031.19
2018-08-06T01:27:42.536Z,99030.71
2018-08-06T01:30:13.167Z,99028.83
2018-08-06T01:32:42.109Z,99029.19
2018-08-06T01:35:11.708Z,99033.00
2018-08-06T01:37:40.716Z,99033.22
2018-08-06T01:40:13.210Z,99027.08
2018-08-06T01:42:42.504Z,99029.56
2018-08-06T01:45:13.133Z,99029.77
2018-08-06T01:47:42.025Z,99022.98
2018-08-06T01:50:11.965Z,99017.03
2018-08-06T01:52:41.354Z,99018.09
2018-08-06T01:55:10.241Z,99018.66
2018-08-06T01:57:39.128Z,99025.48
2018-08-06T02:00:11.031Z,99024.37
2018-08-06T02:02:39.886Z,99024.91
2018-08-06T02:05:09.331Z,99024.69
2018-08-06T02:07:38.608Z,99024.55
2018-08-06T02:10:10.525Z,99032.72
2018-08-06T02:12:39.889Z,99034.30
2018-08-06T02:15:10.136Z,99033.22
2018-08-06T02:17:39.415Z,99031.25
2018-08-06T02:20:09.775Z,99034.26
2018-08-06T02:22:38.712Z,99027.53
2018-08-06T02:25:09.013Z,99036.53
2018-08-06T02:27:37.896Z,99031.03
2018-08-06T02:30:09.351Z,99028.14
2018-08-06T02:32:38.352Z,99024.03
2018-08-06T02:35:08.393Z,99028.95
2018-08-06T02:37:37.289Z,99031.80
2018-08-06T02:40:07.739Z,99031.78
2018-08-06T02:42:36.635Z,99034.79
2018-08-06T02:45:06.853Z,99043.14
2018-08-06T02:47:35.694Z,99033.45
2018-08-06T02:50:04.905Z,99034.66
2018-08-06T02:52:33.838Z,99031.80
2018-08-06T02:55:02.898Z,99028.02
2018-08-06T02:57:31.707Z,99035.49
2018-08-06T03:00:00.641Z,99038.34
2018-08-06T03:02:29.585Z,99042.93
2018-08-06T03:04:58.755Z,99044.73
2018-08-06T03:07:27.624Z,99040.97
2018-08-06T03:09:56.534Z,99037.84
2018-08-06T03:12:25.354Z,99038.84
2018-08-06T03:14:54.275Z,99042.73
2018-08-06T03:17:23.211Z,99045.58
2018-08-06T03:19:52.024Z,99040.79
2018-08-06T03:22:20.872Z,99042.34
2018-08-06T03:24:49.752Z,99044.34
2018-08-06T03:27:18.688Z,99041.95
2018-08-06T03:29:47.580Z,99044.00
2018-08-06T03:32:16.559Z,99040.64
2018-08-06T03:34:45.475Z,99049.93
2018-08-06T03:37:14.315Z,99052.91
2018-08-06T03:39:43.219Z,99056.39
2018-08-06T03:42:12.070Z,99055.87
2018-08-06T03:44:40.888Z,99063.81
2018-08-06T03:47:09.782Z,99062.94
2018-08-06T03:49:38.616Z,99063.81
2018-08-06T03:52:07.960Z,99060.36
2018-08-06T03:54:36.843Z,99061.35
2018-08-06T03:57:05.628Z,99068.22
2018-08-06T03:59:34.459Z,99065.66
2018-08-06T04:02:03.339Z,99069.55
2018-08-06T04:04:32.175Z,99074.95
2018-08-06T04:07:00.998Z,99070.36
2018-08-06T04:09:29.827Z,99076.70
2018-08-06T04:11:58.730Z,99069.98
2018-08-06T04:14:27.725Z,99072.49
2018-08-06T04:16:56.704Z,99076.50
2018-08-06T04:19:25.499Z,99070.73
2018-08-06T04:21:54.389Z,99075.95
2018-08-06T04:24:23.223Z,99072.72
2018-08-06T04:26:52.068Z,99075.39
2018-08-06T04:29:20.947Z,99071.59
2018-08-06T04:31:49.863Z,99081.98
2018-08-06T04:34:18.718Z,99084.45
2018-08-06T04:36:47.564Z,99080.56
2018-08-06T04:39:16.467Z,99082.35
2018-08-06T04:41:45.387Z,99086.58
2018-08-06T04:44:14.189Z,99092.30
2018-08-06T04:46:43.098Z,99089.20
2018-08-06T04:49:11.895Z,99097.73
2018-08-06T04:51:40.780Z,99097.97
2018-08-06T04:54:09.703Z,99103.13
2018-08-06T04:56:38.552Z,99104.61
2018-08-06T04:59:07.356Z,99102.61
2018-08-06T05:01:36.298Z,99104.95
2018-08-06T05:04:05.168Z,99107.91
2018-08-06T05:06:34.087Z,99112.23
2018-08-06T05:09:03.118Z,99114.18
2018-08-06T05:11:31.947Z,99113.22
2018-08-06T05:14:00.741Z,99120.61
2018-08-06T05:16:29.592Z,99126.85
2018-08-06T05:18:58.433Z,99121.03
2018-08-06T05:21:27.232Z,99128.69
2018-08-06T05:23:57.623Z,99127.05
2018-08-06T05:26:27.711Z,99132.11
2018-08-06T05:28:56.591Z,99132.11
2018-08-06T05:31:26.575Z,99132.16
2018-08-06T05:33:56.443Z,99123.86
2018-08-06T05:36:25.481Z,99131.30
2018-08-06T05:38:55.693Z,99125.06
2018-08-06T05:41:26.393Z,99133.50
2018-08-06T05:43:56.262Z,99129.81
2018-08-06T05:46:26.143Z,99131.25
2018-08-06T05:48:55.214Z,99131.33
2018-08-06T05:51:24.211Z,99132.73
2018-08-06T05:53:53.101Z,99127.98
2018-08-06T05:56:22.020Z,99125.90
2018-08-06T05:58:51.007Z,99123.16
2018-08-06T06:01:19.981Z,99127.83
2018-08-06T06:03:48.853Z,99124.04
2018-08-06T06:06:17.900Z,99119.94
2018-08-06T06:08:46.837Z,99113.62
2018-08-06T06:11:15.685Z,99122.67
2018-08-06T06:13:44.626Z,99124.34
2018-08-06T06:16:13.652Z,99117.87
2018-08-06T06:18:42.636Z,99119.91
2018-08-06T06:21:11.552Z,99119.67
2018-08-06T06:23:40.565Z,99119.41
2018-08-06T06:26:09.515Z,99123.77
2018-08-06T06:28:38.535Z,99120.48
2018-08-06T06:31:07.406Z,99120.80
2018-08-06T06:33:36.295Z,99124.08
2018-08-06T06:36:05.481Z,99125.17
2018-08-06T06:38:34.317Z,99114.38
2018-08-06T06:41:03.241Z,99122.70
2018-08-06T06:43:32.257Z,99118.56
2018-08-06T06:46:01.214Z,99113.16
2018-08-06T06:48:30.117Z,99117.95
2018-08-06T06:50:59.099Z,99117.46
2018-08-06T06:53:28.073Z,99114.11
2018-08-06T06:55:57.143Z,99120.00
2018-08-06T06:58:26.299Z,99116.83
2018-08-06T07:00:55.214Z,99120.77
2018-08-06T07:03:24.242Z,99110.92
2018-08-06T07:05:53.321Z,99119.64
2018-08-06T07:08:22.223Z,99117.84
2018-08-06T07:10:51.143Z,99115.94
2018-08-06T07:13:21.065Z,99114.14
2018-08-06T07:15:49.984Z,99117.13
2018-08-06T07:18:18.962Z,99120.22
2018-08-06T07:20:48.090Z,99121.61
2018-08-06T07:23:17.192Z,99128.12
2018-08-06T07:25:46.248Z,99121.25
2018-08-06T07:28:15.285Z,99122.49
2018-08-06T07:30:44.310Z,99125.88
2018-08-06T07:33:13.160Z,99120.70
2018-08-06T07:35:42.019Z,99125.58
2018-08-06T07:38:11.093Z,99119.84
2018-08-06T07:40:40.020Z,99130.98
2018-08-06T07:43:08.983Z,99126.52
2018-08-06T07:45:37.898Z,99124.14
2018-08-06T07:48:06.878Z,99126.55
2018-08-06T07:50:35.800Z,99125.84
2018-08-06T07:53:04.866Z,99126.11
2018-08-06T07:55:33.819Z,99124.83
2018-08-06T07:58:02.746Z,99132.69
2018-08-06T08:00:31.686Z,99129.51
2018-08-06T08:03:00.655Z,99125.75
2018-08-06T08:05:29.656Z,99120.15
2018-08-06T08:07:58.598Z,99127.54
2018-08-06T08:10:27.602Z,99129.13
2018-08-06T08:12:56.496Z,99124.37
2018-08-06T08:15:26.828Z,99118.53
2018-08-06T08:17:57.258Z,99123.20
2018-08-06T08:20:26.626Z,99121.10
2018-08-06T08:22:55.599Z,99116.78
2018-08-06T08:25:24.603Z,99118.33
2018-08-06T08:27:53.480Z,99116.42
2018-08-06T08:30:22.568Z,99115.39
2018-08-06T08:32:51.509Z,99115.21
2018-08-06T08:35:20.623Z,99115.11
2018-08-06T08:37:49.670Z,99109.03
2018-08-06T08:40:19.860Z,99107.00
2018-08-06T08:42:48.864Z,99100.36
2018-08-06T08:45:18.811Z,99105.10
2018-08-06T08:47:47.980Z,99093.09
2018-08-06T08:50:19.546Z,99094.84
2018-08-06T08:52:48.564Z,99089.64
2018-08-06T08:55:18.906Z,99088.97
2018-08-06T08:57:47.998Z,99086.21
2018-08-06T09:00:18.107Z,99085.16
2018-08-06T09:02:48.253Z,99083.27
2018-08-06T09:05:17.700Z,99086.39
2018-08-06T09:07:47.038Z,99083.41
2018-08-06T09:10:17.613Z,99090.24
2018-08-06T09:12:46.863Z,99088.45
2018-08-06T09:15:19.284Z,99087.50
2018-08-06T09:17:48.196Z,99085.05
2018-08-06T09:20:17.145Z,99078.52
2018-08-06T09:22:46.704Z,99084.00
2018-08-06T09:25:16.034Z,99081.94
2018-08-06T09:27:46.263Z,99077.70
2018-08-06T09:30:18.275Z,99073.22
2018-08-06T09:32:48.516Z,99071.67
2018-08-06T09:35:18.281Z,99071.18
2018-08-06T09:37:47.427Z,99068.31
2018-08-06T09:40:17.802Z,99059.44
2018-08-06T09:42:47.371Z,99064.07
2018-08-06T09:45:17.497Z,99070.66
2018-08-06T09:47:47.771Z,99067.90
2018-08-06T09:50:17.684Z,99062.13
2018-08-06T09:52:47.796Z,99061.48
2018-08-06T09:55:20.587Z,99059.66
2018-08-06T09:57:50.273Z,99055.81
2018-08-06T10:00:25.152Z,99052.97
2018-08-06T10:02:55.180Z,99049.33
2018-08-06T10:05:25.078Z,99042.64
2018-08-06T10:07:54.350Z,99047.47
2018-08-06T10:10:23.483Z,99044.85
2018-08-06T10:12:52.661Z,99037.39
2018-08-06T10:15:23.095Z,99030.55
2018-08-06T10:17:54.252Z,99031.94
2018-08-06T10:20:24.470Z,99030.13
2018-08-06T10:22:53.445Z,99026.70
2018-08-06T10:25:22.464Z,99019.52
2018-08-06T10:27:51.402Z,99023.36
2018-08-06T10:30:21.432Z,99018.12
2018-08-06T10:32:50.535Z,99010.08
2018-08-06T10:35:20.131Z,99009.66
2018-08-06T10:37:49.209Z,99011.25
2018-08-06T10:40:22.474Z,99006.66
2018-08-06T10:42:51.442Z,99010.87
2018-08-06T10:45:21.544Z,99004.52
2018-08-06T10:47:50.968Z,99010.59
2018-08-06T10:50:20.006Z,99005.45
2018-08-06T10:52:48.904Z,99005.95
2018-08-06T10:55:17.960Z,98999.64
2018-08-06T10:57:47.254Z,98996.88
2018-08-06T11:00:20.292Z,98993.72
2018-08-06T11:02:49.472Z,98994.25
2018-08-06T11:05:18.958Z,98993.57
2018-08-06T11:07:48.858Z,98989.89
2018-08-06T11:10:19.214Z,98992.83
2018-08-06T11:12:48.211Z,98990.04
2018-08-06T11:15:22.531Z,98985.23
2018-08-06T11:17:51.554Z,98979.23
2018-08-06T11:20:21.163Z,98984.30
2018-08-06T11:22:50.103Z,98943.66
2018-08-06T11:25:20.680Z,98974.72
2018-08-06T11:27:49.792Z,98972.69
2018-08-06T11:30:20.375Z,98973.66
2018-08-06T11:32:49.903Z,98976.86
2018-08-06T11:35:18.928Z,98979.55
2018-08-06T11:37:47.962Z,98975.50
2018-08-06T11:40:17.783Z,98973.27
2018-08-06T11:42:47.260Z,98968.70
2018-08-06T11:45:17.581Z,98959.84
2018-08-06T11:47:46.485Z,98962.33
2018-08-06T11:50:15.387Z,98959.63
2018-08-06T11:52:44.309Z,98960.92
2018-08-06T11:55:13.191Z,98960.05
2018-08-06T11:57:42.105Z,98953.78
2018-08-06T12:00:19.913Z,98956.31
2018-08-06T12:02:48.817Z,98953.08
2018-08-06T12:05:17.794Z,98951.81
2018-08-06T12:07:46.740Z,98953.23
2018-08-06T12:10:16.928Z,98946.21
2018-08-06T12:12:46.635Z,98946.48
2018-08-06T12:15:15.655Z,98942.81
2018-08-06T12:17:44.840Z,98934.88
2018-08-06T12:20:15.522Z,98939.31
2018-08-06T12:22:45.790Z,98928.23
2018-08-06T12:25:15.508Z,98930.09
2018-08-06T12:27:44.977Z,98924.14
2018-08-06T12:30:15.785Z,98924.13
2018-08-06T12:32:45.392Z,98922.22
2018-08-06T12:35:14.603Z,98918.08
2018-08-06T12:37:43.727Z,98913.45
2018-08-06T12:40:14.761Z,98912.27
2018-08-06T12:42:43.720Z,98903.11
2018-08-06T12:45:13.556Z,98899.45
2018-08-06T12:47:42.828Z,98909.50
2018-08-06T12:50:12.853Z,98902.02
2018-08-06T12:52:42.402Z,98900.96
2018-08-06T12:55:12.696Z,98901.45
2018-08-06T12:57:42.202Z,98897.97
2018-08-06T13:00:24.244Z,98894.47
2018-08-06T13:02:53.790Z,98895.91
2018-08-06T13:05:23.394Z,98896.32
2018-08-06T13:07:52.387Z,98885.64
2018-08-06T13:10:21.268Z,98888.88
2018-08-06T13:12:50.188Z,98890.30
2018-08-06T13:15:19.160Z,98890.11
2018-08-06T13:17:48.039Z,98892.06
2018-08-06T13:20:16.887Z,98893.14
2018-08-06T13:22:45.866Z,98892.70
2018-08-06T13:25:14.685Z,98891.98
2018-08-06T13:27:43.537Z,98889.69
2018-08-06T13:30:14.616Z,98890.67
2018-08-06T13:32:44.299Z,98893.11
2018-08-06T13:35:14.139Z,98887.22
2018-08-06T13:37:43.004Z,98889.16
2018-08-06T13:40:12.168Z,98890.61
2018-08-06T13:42:41.118Z,98885.59
2018-08-06T13:45:11.971Z,98880.50
2018-08-06T13:47:40.851Z,98883.27
2018-08-06T13:50:10.480Z,98878.44
2018-08-06T13:52:39.382Z,98876.45
2018-08-06T13:55:09.806Z,98877.97
2018-08-06T13:57:38.919Z,98874.29
2018-08-06T14:00:17.173Z,98870.44
2018-08-06T14:02:46.361Z,98874.89
2018-08-06T14:05:16.096Z,98874.31
2018-08-06T14:07:46.851Z,98870.80
2018-08-06T14:10:16.154Z,98869.70
2018-08-06T14:12:45.001Z,98863.48
2018-08-06T14:15:14.168Z,98871.11
2018-08-06T14:17:43.685Z,98866.52
2018-08-06T14:20:14.890Z,98868.72
2018-08-06T14:22:43.735Z,98864.28
2018-08-06T14:25:13.744Z,98865.22
2018-08-06T14:27:42.771Z,98865.41
2018-08-06T14:30:13.837Z,98861.49
2018-08-06T14:32:43.254Z,98864.46
2018-08-06T14:35:12.453Z,98863.53
2018-08-06T14:37:41.391Z,98861.34
2018-08-06T14:40:13.188Z,98866.39
2018-08-06T14:42:42.116Z,98858.91
2018-08-06T14:45:11.325Z,98858.81
2018-08-06T14:47:40.251Z,98857.89
2018-08-06T14:50:10.533Z,98858.30
2018-08-06T14:52:39.455Z,98852.97
2018-08-06T14:55:08.433Z,98856.64
2018-08-06T14:57:38.531Z,98855.57
2018-08-06T15:00:17.290Z,98857.48
2018-08-06T15:02:46.676Z,98857.18
2018-08-06T15:05:15.588Z,98858.16
2018-08-06T15:07:44.950Z,98856.52
2018-08-06T15:10:14.561Z,98855.30
2018-08-06T15:12:43.633Z,98856.72
2018-08-06T15:15:14.298Z,98853.92
2018-08-06T15:17:43.895Z,98847.92
2018-08-06T15:20:14.488Z,98848.70
2018-08-06T15:22:43.443Z,98843.89
2018-08-06T15:25:19.307Z,98843.68
2018-08-06T15:27:48.275Z,98840.36
2018-08-06T15:30:17.163Z,98840.80
2018-08-06T15:32:46.203Z,98833.77
2018-08-06T15:35:15.275Z,98834.43
2018-08-06T15:37:44.955Z,98835.27
2018-08-06T15:40:17.910Z,98836.47
2018-08-06T15:42:46.863Z,98832.88
2018-08-06T15:45:15.958Z,98833.79
2018-08-06T15:47:45.797Z,98828.47
2018-08-06T15:50:16.849Z,98834.69
2018-08-06T15:52:45.809Z,98830.46
2018-08-06T15:55:14.882Z,98831.20
2018-08-06T15:57:43.890Z,98831.27
2018-08-06T16:00:15.257Z,98829.06
2018-08-06T16:02:44.532Z,98838.49
2018-08-06T16:05:13.669Z,98839.41
2018-08-06T16:07:42.722Z,98838.16
2018-08-06T16:10:12.451Z,98836.68
2018-08-06T16:12:41.690Z,98835.75
2018-08-06T16:15:12.420Z,98836.97
2018-08-06T16:17:42.095Z,98838.63
2018-08-06T16:20:18.403Z,98842.66
2018-08-06T16:22:47.351Z,98843.98
2018-08-06T16:25:16.396Z,98840.59
2018-08-06T16:27:45.359Z,98844.00
2018-08-06T16:30:16.674Z,98845.42
2018-08-06T16:32:46.553Z,98846.77
2018-08-06T16:35:16.345Z,98846.61
2018-08-06T16:37:45.308Z,98846.10
2018-08-06T16:40:14.669Z,98846.08
2018-08-06T16:42:43.816Z,98854.31
2018-08-06T16:45:12.715Z,98847.80
2018-08-06T16:47:41.691Z,98851.64
2018-08-06T16:50:12.596Z,98850.19
2018-08-06T16:52:41.716Z,98848.66
2018-08-06T16:55:11.821Z,98852.65
2018-08-06T16:57:41.002Z,98858.68
2018-08-06T17:00:17.407Z,98859.02
2018-08-06T17:02:46.469Z,98856.08
2018-08-06T17:05:15.502Z,98858.99
2018-08-06T17:07:46.702Z,98858.55
2018-08-06T17:10:17.947Z,98862.98
2018-08-06T17:12:48.096Z,98864.37
2018-08-06T17:15:18.287Z,98866.06
2018-08-06T17:17:47.871Z,98866.42
2018-08-06T17:20:18.450Z,98867.59
2018-08-06T17:22:48.453Z,98864.95
2018-08-06T17:25:17.524Z,98866.37
2018-08-06T17:27:46.435Z,98868.22
2018-08-06T17:30:16.145Z,98867.52
2018-08-06T17:32:45.113Z,98869.25
2018-08-06T17:35:14.586Z,98869.18
2018-08-06T17:37:43.493Z,98865.88
2018-08-06T17:40:17.319Z,98870.11
2018-08-06T17:42:46.159Z,98866.91
2018-08-06T17:45:17.013Z,98868.33
2018-08-06T17:47:45.984Z,98873.48
2018-08-06T17:50:19.833Z,98872.42
2018-08-06T17:52:49.878Z,98871.30
2018-08-06T17:55:19.765Z,98873.63
2018-08-06T17:57:48.970Z,98876.55
2018-08-06T18:00:18.474Z,98875.13
2018-08-06T18:02:47.539Z,98888.09
2018-08-06T18:05:17.172Z,98887.52
2018-08-06T18:07:46.088Z,98884.27
2018-08-06T18:10:16.303Z,98888.83
2018-08-06T18:12:45.924Z,98887.45
2018-08-06T18:15:14.972Z,98889.29
2018-08-06T18:17:43.851Z,98914.01
2018-08-06T18:20:14.919Z,98920.22
2018-08-06T18:22:43.872Z,98924.36
2018-08-06T18:25:15.518Z,98911.77
2018-08-06T18:27:45.542Z,98919.83
2018-08-06T18:30:16.247Z,98921.17
2018-08-06T18:32:45.222Z,98921.58
2018-08-06T18:35:15.699Z,98920.20
2018-08-06T18:37:44.616Z,98931.30
2018-08-06T18:40:14.344Z,98927.59
2018-08-06T18:42:43.326Z,98933.12
2018-08-06T18:45:14.569Z,98937.17
2018-08-06T18:47:45.933Z,98931.02
2018-08-06T18:50:15.690Z,98944.03
2018-08-06T18:52:45.515Z,98941.93
2018-08-06T18:55:15.373Z,98948.09
2018-08-06T18:57:44.709Z,98943.84
2018-08-06T19:00:19.755Z,98954.88
2018-08-06T19:02:48.834Z,98942.56
2018-08-06T19:05:17.823Z,98940.31
2018-08-06T19:10:25.559Z,98938.30
2018-08-06T19:12:59.709Z,98945.18
2018-08-06T19:15:28.686Z,98943.65
2018-08-06T19:18:02.680Z,98945.12
2018-08-06T19:20:31.692Z,98942.21
2018-08-06T19:23:00.674Z,98941.52
2018-08-06T19:25:31.001Z,98941.47
2018-08-06T19:27:59.966Z,98944.27
2018-08-06T19:30:33.901Z,98944.08
2018-08-06T19:33:03.108Z,98940.27
2018-08-06T19:35:32.098Z,98940.84
2018-08-06T19:38:00.989Z,98939.41
2018-08-06T19:40:30.045Z,98941.09
2018-08-06T19:43:04.016Z,98944.59
2018-08-06T19:45:33.079Z,98943.56
2018-08-06T19:48:01.905Z,98941.60
2018-08-06T19:50:36.008Z,98938.75
2018-08-06T19:53:05.130Z,98939.91
2018-08-06T19:55:39.312Z,98941.36
2018-08-06T19:58:08.245Z,98942.38
2018-08-06T20:00:37.195Z,98944.73
2018-08-06T20:03:06.344Z,98946.12
2018-08-06T20:05:35.341Z,98945.27
2018-08-06T20:08:04.370Z,98952.56
2018-08-06T20:10:33.441Z,98952.00
2018-08-06T20:13:02.431Z,98947.57
2018-08-06T20:15:31.329Z,98959.67
2018-08-06T20:18:00.414Z,98955.80
2018-08-06T20:20:29.333Z,98954.84
2018-08-06T20:22:58.226Z,98961.78
2018-08-06T20:25:27.154Z,98959.38
2018-08-06T20:27:56.177Z,98957.83
2018-08-06T20:30:25.040Z,98956.98
2018-08-06T20:32:54.612Z,98960.34
2018-08-06T20:35:23.657Z,98963.48
2018-08-06T20:37:52.676Z,98957.81
2018-08-06T20:40:21.623Z,98959.97
2018-08-06T20:42:50.462Z,98965.78
2018-08-06T20:45:20.626Z,98966.41
2018-08-06T20:47:49.714Z,98967.45
2018-08-06T20:50:20.416Z,98959.82
2018-08-06T20:52:50.207Z,98957.14
2018-08-06T20:55:19.170Z,98964.31
2018-08-06T20:57:48.456Z,98957.98
2018-08-06T21:00:19.670Z,98961.80
2018-08-06T21:02:49.372Z,98965.63
2018-08-06T21:05:18.374Z,98967.33
2018-08-06T21:07:47.451Z,98977.73
2018-08-06T21:10:17.305Z,98981.49
2018-08-06T21:12:46.604Z,98982.41
2018-08-06T21:15:16.065Z,98976.34
2018-08-06T21:17:45.188Z,98973.59
2018-08-06T21:20:15.994Z,98989.91
2018-08-06T21:22:46.907Z,98984.48
2018-08-06T21:25:16.171Z,98984.31
2018-08-06T21:27:46.156Z,98987.45
2018-08-06T21:30:17.155Z,98986.41
2018-08-06T21:32:53.228Z,98994.50
2018-08-06T21:35:23.269Z,98997.72
2018-08-06T21:37:53.083Z,99002.80
2018-08-06T21:40:22.916Z,98998.49
2018-08-06T21:42:52.198Z,98999.05
2018-08-06T21:45:21.303Z,98996.31
2018-08-06T21:47:50.533Z,99001.56
2018-08-06T21:50:19.421Z,98994.67
2018-08-06T21:52:48.241Z,98999.92
2018-08-06T21:55:17.215Z,98994.41
2018-08-06T21:57:46.112Z,98999.92
2018-08-06T22:00:35.646Z,98994.41
2018-08-06T22:03:06.138Z,98994.16
2018-08-06T22:05:35.043Z,98994.97
2018-08-06T22:08:04.086Z,98996.66
2018-08-06T22:10:33.040Z,98995.05
2018-08-06T22:13:01.883Z,98997.27
2018-08-06T22:15:30.831Z,98997.82
2018-08-06T22:17:59.734Z,98997.31
2018-08-06T22:20:28.678Z,99000.61
2018-08-06T22:22:57.628Z,99000.06
2018-08-06T22:25:26.608Z,98997.31
2018-08-06T22:27:55.533Z,98999.22
2018-08-06T22:30:24.500Z,98994.27
2018-08-06T22:32:53.385Z,98997.02
2018-08-06T22:35:22.246Z,98998.67
2018-08-06T22:37:51.133Z,98991.80
2018-08-06T22:40:20.012Z,98984.92
2018-08-06T22:42:48.903Z,98981.09
2018-08-06T22:45:17.868Z,98978.61
2018-08-06T22:47:46.788Z,98975.01
2018-08-06T22:50:15.633Z,98964.47
2018-08-06T22:52:44.592Z,98976.64
2018-08-06T22:55:13.765Z,98973.58
2018-08-06T22:57:43.188Z,98976.12
2018-08-06T23:00:14.316Z,98968.16
2018-08-06T23:02:43.642Z,98965.14
2018-08-06T23:05:13.769Z,98974.46
2018-08-06T23:07:42.652Z,98979.18
2018-08-06T23:10:14.539Z,98970.84
2018-08-06T23:12:43.542Z,98977.72
2018-08-06T23:15:14.984Z,98976.59
2018-08-06T23:17:44.520Z,98971.09
2018-08-06T23:20:13.485Z,98973.29
2018-08-06T23:22:43.043Z,98975.52
2018-08-06T23:25:12.026Z,98976.28
2018-08-06T23:27:41.395Z,98977.14
2018-08-06T23:30:12.927Z,98976.04
2018-08-06T23:32:42.198Z,98980.46
2018-08-06T23:35:12.399Z,98974.70
2018-08-06T23:37:42.500Z,98983.20
2018-08-06T23:40:12.354Z,98976.89
2018-08-06T23:42:41.815Z,98978.02
2018-08-06T23:45:11.860Z,98978.86
2018-08-06T23:47:41.206Z,98975.88
2018-08-06T23:50:11.868Z,98975.33
2018-08-06T23:52:42.203Z,98971.70
2018-08-06T23:55:12.483Z,98979.13
2018-08-06T23:57:41.420Z,98972.81
